createdAt,value
2022-10-04T00:01:51.802Z,12.30
2022-10-04T00:04:23.967Z,12.20
2022-10-04T00:06:56.832Z,11.80
2022-10-04T00:09:25.798Z,11.70
2022-10-04T00:11:54.811Z,11.80
2022-10-04T00:14:24.407Z,11.70
2022-10-04T00:16:52.486Z,11.90
2022-10-04T00:19:26.532Z,12.00
2022-10-04T00:22:18.620Z,12.10
2022-10-04T00:25:20.416Z,12.10
2022-10-04T00:28:25.679Z,11.80
2022-10-04T00:31:19.243Z,11.50
2022-10-04T00:33:48.227Z,11.50
2022-10-04T00:36:53.889Z,11.50
2022-10-04T00:39:39.350Z,11.70
2022-10-04T00:42:22.674Z,12.00
2022-10-04T00:44:52.338Z,12.00
2022-10-04T00:47:31.973Z,12.10
2022-10-04T00:50:06.630Z,12.00
2022-10-04T00:52:36.301Z,11.70
2022-10-04T00:55:07.620Z,11.50
2022-10-04T00:57:38.474Z,11.50
2022-10-04T01:00:09.028Z,11.30
2022-10-04T01:02:40.666Z,11.30
2022-10-04T01:05:10.747Z,11.70
2022-10-04T01:07:40.644Z,11.30
2022-10-04T01:10:11.787Z,11.20
2022-10-04T01:12:45.504Z,11.40
2022-10-04T01:15:15.894Z,11.20
2022-10-04T01:17:46.048Z,11.50
2022-10-04T01:20:31.431Z,11.60
2022-10-04T01:23:01.053Z,11.90
2022-10-04T01:25:48.876Z,11.80
2022-10-04T01:28:17.116Z,11.80
2022-10-04T01:30:45.348Z,11.70
2022-10-04T01:33:13.811Z,11.70
2022-10-04T01:35:41.920Z,11.40
2022-10-04T01:38:11.503Z,11.30
2022-10-04T01:40:44.071Z,11.60
2022-10-04T01:43:12.641Z,11.50
2022-10-04T01:45:42.035Z,11.30
2022-10-04T01:48:12.032Z,11.20
2022-10-04T01:50:41.790Z,11.20
2022-10-04T01:53:15.569Z,11.40
2022-10-04T01:55:44.745Z,11.50
2022-10-04T01:58:14.770Z,11.30
2022-10-04T02:00:48.794Z,11.20
2022-10-04T02:03:18.830Z,11.20
2022-10-04T02:05:51.475Z,11.30
2022-10-04T02:08:25.137Z,11.40
2022-10-04T02:10:54.982Z,11.20
2022-10-04T02:13:23.284Z,11.20
2022-10-04T02:15:51.515Z,11.00
2022-10-04T02:18:20.740Z,11.20
2022-10-04T02:20:49.645Z,11.00
2022-10-04T02:23:18.263Z,10.90
2022-10-04T02:25:47.723Z,10.90
2022-10-04T02:28:18.349Z,10.80
2022-10-04T02:31:09.039Z,10.80
2022-10-04T02:33:40.126Z,11.10
2022-10-04T02:36:09.512Z,11.10
2022-10-04T02:38:39.139Z,11.00
2022-10-04T02:41:12.526Z,11.10
2022-10-04T02:43:41.644Z,10.90
2022-10-04T02:46:10.808Z,11.00
2022-10-04T02:48:40.612Z,11.00
2022-10-04T02:51:17.059Z,11.10
2022-10-04T02:53:49.572Z,11.00
2022-10-04T02:56:19.041Z,10.80
2022-10-04T02:58:47.251Z,10.60
2022-10-04T03:01:19.048Z,10.60
2022-10-04T03:03:47.407Z,10.70
2022-10-04T03:06:18.034Z,10.80
2022-10-04T03:08:49.959Z,11.10
2022-10-04T03:11:21.018Z,11.00
2022-10-04T03:13:50.312Z,11.20
2022-10-04T03:16:18.517Z,11.10
2022-10-04T03:18:46.678Z,11.30
2022-10-04T03:21:15.922Z,11.30
2022-10-04T03:23:44.043Z,11.30
2022-10-04T03:26:26.815Z,11.00
2022-10-04T03:28:55.038Z,11.00
2022-10-04T03:31:23.413Z,11.00
2022-10-04T03:33:51.680Z,10.80
2022-10-04T03:36:20.567Z,10.70
2022-10-04T03:38:48.778Z,10.60
2022-10-04T03:41:18.468Z,10.80
2022-10-04T03:43:49.519Z,11.00
2022-10-04T03:46:18.059Z,10.90
2022-10-04T03:48:47.224Z,11.00
2022-10-04T03:51:16.908Z,11.00
2022-10-04T03:53:45.918Z,11.00
2022-10-04T03:56:14.638Z,11.00
2022-10-04T03:58:42.922Z,11.00
2022-10-04T04:01:21.497Z,10.90
2022-10-04T04:03:55.501Z,10.90
2022-10-04T04:06:23.589Z,11.10
2022-10-04T04:08:54.194Z,11.00
2022-10-04T04:11:24.379Z,11.10
2022-10-04T04:13:59.885Z,11.10
2022-10-04T04:16:29.465Z,10.80
2022-10-04T04:19:00.799Z,11.00
2022-10-04T04:21:29.312Z,11.10
2022-10-04T04:23:58.182Z,11.00
2022-10-04T04:26:29.538Z,11.10
2022-10-04T04:28:59.376Z,11.10
2022-10-04T04:31:29.854Z,11.00
2022-10-04T04:34:00.567Z,11.20
2022-10-04T04:36:29.850Z,11.20
2022-10-04T04:39:28.448Z,10.80
2022-10-04T04:41:56.599Z,10.80
2022-10-04T04:44:24.772Z,11.00
2022-10-04T04:47:00.867Z,11.00
2022-10-04T04:49:29.979Z,11.00
2022-10-04T04:51:59.172Z,11.00
2022-10-04T04:54:28.082Z,10.80
2022-10-04T04:56:56.678Z,11.00
2022-10-04T04:59:25.052Z,11.00
2022-10-04T05:01:54.610Z,10.90
2022-10-04T05:04:23.262Z,10.70
2022-10-04T05:07:01.359Z,10.40
2022-10-04T05:09:31.664Z,10.60
2022-10-04T05:12:03.175Z,10.70
2022-10-04T05:14:31.759Z,10.70
2022-10-04T05:17:01.223Z,10.70
2022-10-04T05:19:30.606Z,10.50
2022-10-04T05:21:59.799Z,10.70
2022-10-04T05:24:28.666Z,10.80
2022-10-04T05:26:58.146Z,10.80
2022-10-04T05:29:28.494Z,10.80
2022-10-04T05:32:04.542Z,10.80
2022-10-04T05:34:33.928Z,10.80
2022-10-04T05:37:07.806Z,10.70
2022-10-04T05:39:38.775Z,10.70
2022-10-04T05:42:11.300Z,10.70
2022-10-04T05:44:47.405Z,10.70
2022-10-04T05:47:16.984Z,10.70
2022-10-04T05:49:46.461Z,10.80
2022-10-04T05:52:16.677Z,11.00
2022-10-04T05:54:44.915Z,11.00
2022-10-04T05:57:36.340Z,11.10
2022-10-04T06:00:10.957Z,11.20
2022-10-04T06:03:05.562Z,11.40
2022-10-04T06:05:40.227Z,11.40
2022-10-04T06:08:11.840Z,11.20
2022-10-04T06:10:50.119Z,11.40
2022-10-04T06:13:29.112Z,11.40
2022-10-04T06:16:16.888Z,11.60
2022-10-04T06:19:11.484Z,11.50
2022-10-04T06:21:40.479Z,11.20
2022-10-04T06:24:12.521Z,11.40
2022-10-04T06:26:43.799Z,11.50
2022-10-04T06:29:13.815Z,11.50
2022-10-04T06:32:21.847Z,11.50
2022-10-04T06:35:15.618Z,11.50
2022-10-04T06:38:17.060Z,11.70
2022-10-04T06:41:15.553Z,11.70
2022-10-04T06:43:57.814Z,11.70
2022-10-04T06:46:28.564Z,11.70
2022-10-04T06:49:28.811Z,11.40
2022-10-04T06:52:17.247Z,11.60
2022-10-04T06:54:54.988Z,11.50
2022-10-04T06:57:38.125Z,11.60
2022-10-04T07:00:09.926Z,11.90
2022-10-04T07:02:41.772Z,12.20
2022-10-04T07:05:16.756Z,12.40
2022-10-04T07:07:48.386Z,12.40
2022-10-04T07:10:31.117Z,12.30
2022-10-04T07:13:23.777Z,12.20
2022-10-04T07:15:53.817Z,12.30
2022-10-04T07:18:27.062Z,12.30
2022-10-04T07:21:01.314Z,12.30
2022-10-04T07:23:32.866Z,12.50
2022-10-04T07:26:03.244Z,12.60
2022-10-04T07:28:50.434Z,12.70
2022-10-04T07:31:23.215Z,12.80
2022-10-04T07:33:52.908Z,13.00
2022-10-04T07:36:22.937Z,13.30
2022-10-04T07:38:53.645Z,14.00
2022-10-04T07:41:24.431Z,13.70
2022-10-04T07:43:56.238Z,13.70
2022-10-04T07:46:41.381Z,14.00
2022-10-04T07:49:14.757Z,14.40
2022-10-04T07:51:46.877Z,14.80
2022-10-04T07:54:18.224Z,15.10
2022-10-04T07:56:48.627Z,15.50
2022-10-04T07:59:28.982Z,15.60
2022-10-04T08:02:02.024Z,15.30
2022-10-04T08:04:34.288Z,15.60
2022-10-04T08:07:03.915Z,15.80
2022-10-04T08:09:54.469Z,15.90
2022-10-04T08:12:24.542Z,16.10
2022-10-04T08:14:57.334Z,16.00
2022-10-04T08:17:38.972Z,16.30
2022-10-04T08:20:28.703Z,16.20
2022-10-04T08:23:03.125Z,16.50
2022-10-04T08:25:34.789Z,16.90
2022-10-04T08:28:22.081Z,16.80
2022-10-04T08:31:02.842Z,16.70
2022-10-04T08:33:42.222Z,16.50
2022-10-04T08:36:15.791Z,16.20
2022-10-04T08:38:45.252Z,16.80
2022-10-04T08:41:54.151Z,17.40
2022-10-04T08:44:50.151Z,17.70
2022-10-04T08:48:01.694Z,18.10
2022-10-04T08:51:14.710Z,18.30
2022-10-04T08:54:22.505Z,18.50
2022-10-04T08:57:02.505Z,18.30
2022-10-04T08:59:52.441Z,18.60
2022-10-04T09:03:11.323Z,18.40
2022-10-04T09:06:01.884Z,18.80
2022-10-04T09:09:07.964Z,19.20
2022-10-04T09:12:00.485Z,19.00
2022-10-04T09:15:04.385Z,18.80
2022-10-04T09:17:38.819Z,18.80
2022-10-04T09:20:37.183Z,18.70
2022-10-04T09:23:10.336Z,18.90
2022-10-04T09:25:50.039Z,18.80
2022-10-04T09:28:52.169Z,18.70
2022-10-04T09:31:36.285Z,19.10
2022-10-04T09:34:11.424Z,19.30
2022-10-04T09:37:09.979Z,19.00
2022-10-04T09:40:04.033Z,19.30
2022-10-04T09:42:56.634Z,19.40
2022-10-04T09:45:52.312Z,19.70
2022-10-04T09:48:28.534Z,19.50
2022-10-04T09:51:20.037Z,19.60
2022-10-04T09:54:06.131Z,20.00
2022-10-04T09:56:48.943Z,20.20
2022-10-04T09:59:57.303Z,20.10
2022-10-04T10:03:03.483Z,20.40
2022-10-04T10:05:49.353Z,20.30
2022-10-04T10:08:22.044Z,20.00
2022-10-04T10:11:15.609Z,19.80
2022-10-04T10:14:08.807Z,19.80
2022-10-04T10:16:42.431Z,20.40
2022-10-04T10:19:31.480Z,20.50
2022-10-04T10:22:11.441Z,20.70
2022-10-04T10:24:58.114Z,20.40
2022-10-04T10:27:41.052Z,20.60
2022-10-04T10:30:24.139Z,19.50
2022-10-04T10:33:12.547Z,20.10
2022-10-04T10:35:49.176Z,20.60
2022-10-04T10:38:40.493Z,21.30
2022-10-04T10:41:25.030Z,21.40
2022-10-04T10:44:19.964Z,21.80
2022-10-04T10:46:58.647Z,21.70
2022-10-04T10:49:48.303Z,22.10
2022-10-04T10:52:44.764Z,20.80
2022-10-04T10:55:30.944Z,21.60
2022-10-04T10:58:28.286Z,22.20
2022-10-04T11:01:01.482Z,22.20
2022-10-04T11:03:46.923Z,21.50
2022-10-04T11:06:35.924Z,21.70
2022-10-04T11:09:21.973Z,22.10
2022-10-04T11:12:13.241Z,22.50
2022-10-04T11:14:57.043Z,21.90
2022-10-04T11:17:35.759Z,21.80
2022-10-04T11:20:23.327Z,21.80
2022-10-04T11:23:27.443Z,22.20
2022-10-04T11:26:06.529Z,21.80
2022-10-04T11:28:38.694Z,22.40
2022-10-04T11:31:28.940Z,22.80
2022-10-04T11:34:42.839Z,22.80
2022-10-04T11:37:14.570Z,22.30
2022-10-04T11:40:03.588Z,22.30
2022-10-04T11:42:40.850Z,23.00
2022-10-04T11:45:45.379Z,22.60
2022-10-04T11:48:20.610Z,23.20
2022-10-04T11:51:03.314Z,23.10
2022-10-04T11:53:46.359Z,22.50
2022-10-04T11:56:28.240Z,22.30
2022-10-04T11:59:20.365Z,23.10
2022-10-04T12:02:10.633Z,23.30
2022-10-04T12:05:17.505Z,23.80
2022-10-04T12:07:54.604Z,23.70
2022-10-04T12:10:30.189Z,23.80
2022-10-04T12:13:29.819Z,23.30
2022-10-04T12:16:12.871Z,23.40
2022-10-04T12:19:20.282Z,23.30
2022-10-04T12:22:07.724Z,23.70
2022-10-04T12:24:59.558Z,23.90
2022-10-04T12:27:41.992Z,23.50
2022-10-04T12:30:30.917Z,23.50
2022-10-04T12:33:07.418Z,24.10
2022-10-04T12:35:49.279Z,23.80
2022-10-04T12:38:25.094Z,23.70
2022-10-04T12:40:54.010Z,24.00
2022-10-04T12:43:28.176Z,24.10
2022-10-04T12:46:00.872Z,24.40
2022-10-04T12:48:35.546Z,24.00
2022-10-04T12:51:09.994Z,24.00
2022-10-04T12:53:44.978Z,24.00
2022-10-04T12:56:21.954Z,24.50
2022-10-04T12:59:12.165Z,24.70
2022-10-04T13:01:45.527Z,24.40
2022-10-04T13:04:22.782Z,23.90
2022-10-04T13:06:59.487Z,24.30
2022-10-04T13:09:35.722Z,24.40
2022-10-04T13:12:10.919Z,24.80
2022-10-04T13:14:49.251Z,24.80
2022-10-04T13:17:34.760Z,24.10
2022-10-04T13:20:18.673Z,24.10
2022-10-04T13:22:57.034Z,24.40
2022-10-04T13:25:38.414Z,24.20
2022-10-04T13:28:07.666Z,24.30
2022-10-04T13:30:39.830Z,24.40
2022-10-04T13:33:17.272Z,24.40
2022-10-04T13:35:50.962Z,24.20
2022-10-04T13:38:34.166Z,23.80
2022-10-04T13:41:09.265Z,24.10
2022-10-04T13:44:02.354Z,23.60
2022-10-04T13:46:39.296Z,22.80
2022-10-04T13:49:26.121Z,24.10
2022-10-04T13:52:21.499Z,23.90
2022-10-04T13:55:10.885Z,24.30
2022-10-04T13:57:41.468Z,24.00
2022-10-04T14:00:12.547Z,24.10
2022-10-04T14:03:04.448Z,24.30
2022-10-04T14:06:01.927Z,24.80
2022-10-04T14:08:39.586Z,23.30
2022-10-04T14:11:21.999Z,23.80
2022-10-04T14:14:00.544Z,24.30
2022-10-04T14:16:51.857Z,24.10
2022-10-04T14:19:41.603Z,24.30
2022-10-04T14:22:49.343Z,24.50
2022-10-04T14:25:41.528Z,24.30
2022-10-04T14:28:33.507Z,24.10
2022-10-04T14:31:10.431Z,24.30
2022-10-04T14:34:10.860Z,24.10
2022-10-04T14:36:53.689Z,24.10
2022-10-04T14:39:57.578Z,24.20
2022-10-04T14:42:38.224Z,23.90
2022-10-04T14:45:18.897Z,23.50
2022-10-04T14:48:11.103Z,23.80
2022-10-04T14:50:47.394Z,23.80
2022-10-04T14:53:22.747Z,23.40
2022-10-04T14:56:10.601Z,23.40
2022-10-04T14:58:42.899Z,23.50
2022-10-04T15:01:20.586Z,23.80
2022-10-04T15:03:56.016Z,23.80
2022-10-04T15:06:27.967Z,23.30
2022-10-04T15:09:18.440Z,23.40
2022-10-04T15:12:21.599Z,23.00
2022-10-04T15:14:43.287Z,23.30
2022-10-04T15:17:12.688Z,23.40
2022-10-04T15:20:01.038Z,23.40
2022-10-04T15:22:31.431Z,23.20
2022-10-04T15:25:00.939Z,22.80
2022-10-04T15:27:46.611Z,23.20
2022-10-04T15:30:23.205Z,23.00
2022-10-04T15:32:59.190Z,22.90
2022-10-04T15:35:32.384Z,23.10
2022-10-04T15:38:01.799Z,22.80
2022-10-04T15:40:41.058Z,22.70
2022-10-04T15:43:20.736Z,22.60
2022-10-04T15:46:02.241Z,22.40
2022-10-04T15:48:40.173Z,22.50
2022-10-04T15:51:12.902Z,22.60
2022-10-04T15:53:50.210Z,22.50
2022-10-04T15:56:35.963Z,22.20
2022-10-04T15:59:45.742Z,22.20
2022-10-04T16:02:44.468Z,22.10
2022-10-04T16:05:16.675Z,22.20
2022-10-04T16:08:11.554Z,22.00
2022-10-04T16:11:08.248Z,22.10
2022-10-04T16:13:44.861Z,22.20
2022-10-04T16:16:46.018Z,22.10
2022-10-04T16:19:21.040Z,21.80
2022-10-04T16:21:53.798Z,22.00
2022-10-04T16:24:48.955Z,22.20
2022-10-04T16:27:49.339Z,22.00
2022-10-04T16:30:27.558Z,21.40
2022-10-04T16:33:25.179Z,21.70
2022-10-04T16:36:04.591Z,21.30
2022-10-04T16:38:35.308Z,20.90
2022-10-04T16:41:10.103Z,21.10
2022-10-04T16:43:41.158Z,20.80
2022-10-04T16:46:20.049Z,20.70
2022-10-04T16:48:50.504Z,20.30
2022-10-04T16:51:27.748Z,20.30
2022-10-04T16:53:59.551Z,19.80
2022-10-04T16:56:28.167Z,19.70
2022-10-04T16:59:00.771Z,19.90
2022-10-04T17:02:14.394Z,19.90
2022-10-04T17:05:05.089Z,19.70
2022-10-04T17:07:40.107Z,19.60
2022-10-04T17:10:21.223Z,19.40
2022-10-04T17:12:53.199Z,19.20
2022-10-04T17:15:45.716Z,18.80
2022-10-04T17:18:27.749Z,18.80
2022-10-04T17:20:58.078Z,18.50
2022-10-04T17:23:45.185Z,18.60
2022-10-04T17:26:18.618Z,18.60
2022-10-04T17:28:50.080Z,18.60
2022-10-04T17:31:19.484Z,18.80
2022-10-04T17:33:53.757Z,18.70
2022-10-04T17:36:34.313Z,18.60
2022-10-04T17:39:09.734Z,18.60
2022-10-04T17:41:46.686Z,18.70
2022-10-04T17:44:45.380Z,18.50
2022-10-04T17:47:17.253Z,18.20
2022-10-04T17:50:12.683Z,18.10
2022-10-04T17:53:01.522Z,18.20
2022-10-04T17:55:30.664Z,17.90
2022-10-04T17:58:01.682Z,17.80
2022-10-04T18:00:31.109Z,17.80
2022-10-04T18:03:20.375Z,17.80
2022-10-04T18:05:52.815Z,17.60
2022-10-04T18:08:27.371Z,17.50
2022-10-04T18:10:57.191Z,17.50
2022-10-04T18:13:29.811Z,17.40
2022-10-04T18:16:01.757Z,17.10
2022-10-04T18:18:31.276Z,17.10
2022-10-04T18:21:27.310Z,17.30
2022-10-04T18:23:57.326Z,17.20
2022-10-04T18:26:26.117Z,17.10
2022-10-04T18:28:55.083Z,16.80
2022-10-04T18:31:34.084Z,16.80
2022-10-04T18:34:04.351Z,16.70
2022-10-04T18:36:53.296Z,16.60
2022-10-04T18:39:22.087Z,16.40
2022-10-04T18:42:00.691Z,16.50
2022-10-04T18:44:30.461Z,16.40
2022-10-04T18:46:59.659Z,16.50
2022-10-04T18:49:29.673Z,16.30
2022-10-04T18:52:08.276Z,16.30
2022-10-04T18:54:40.829Z,16.40
2022-10-04T18:57:14.274Z,16.40
2022-10-04T19:00:03.956Z,16.50
2022-10-04T19:02:36.278Z,16.30
2022-10-04T19:05:08.859Z,16.20
2022-10-04T19:07:41.886Z,15.80
2022-10-04T19:10:15.321Z,16.10
2022-10-04T19:12:49.036Z,16.00
2022-10-04T19:15:35.982Z,15.70
2022-10-04T19:18:10.244Z,15.90
2022-10-04T19:20:40.428Z,16.00
2022-10-04T19:23:17.577Z,15.80
2022-10-04T19:26:09.808Z,15.80
2022-10-04T19:28:34.834Z,15.80
2022-10-04T19:31:12.800Z,15.80
2022-10-04T19:33:44.812Z,16.00
2022-10-04T19:36:39.293Z,16.00
2022-10-04T19:39:20.835Z,15.80
2022-10-04T19:41:52.900Z,15.90
2022-10-04T19:44:44.056Z,15.80
2022-10-04T19:47:22.339Z,15.70
2022-10-04T19:49:52.958Z,15.30
2022-10-04T19:52:24.695Z,15.00
2022-10-04T19:54:57.567Z,15.00
2022-10-04T19:57:32.919Z,15.30
2022-10-04T20:00:01.486Z,15.30
2022-10-04T20:02:29.710Z,15.40
2022-10-04T20:04:58.101Z,14.90
2022-10-04T20:07:27.888Z,15.00
2022-10-04T20:09:58.341Z,15.00
2022-10-04T20:12:32.850Z,15.10
2022-10-04T20:15:40.193Z,15.20
2022-10-04T20:18:23.054Z,15.50
2022-10-04T20:21:06.980Z,15.30
2022-10-04T20:23:50.779Z,15.30
2022-10-04T20:26:56.053Z,15.10
2022-10-04T20:30:04.177Z,15.10
2022-10-04T20:32:54.577Z,15.10
2022-10-04T20:36:02.173Z,15.30
2022-10-04T20:38:59.740Z,15.40
2022-10-04T20:42:17.382Z,15.10
2022-10-04T20:44:55.647Z,14.80
2022-10-04T20:47:40.917Z,14.60
2022-10-04T20:50:19.767Z,14.80
2022-10-04T20:52:49.007Z,14.80
2022-10-04T20:55:27.403Z,14.90
2022-10-04T20:58:02.023Z,14.70
2022-10-04T21:00:34.545Z,14.70
2022-10-04T21:03:16.541Z,14.60
2022-10-04T21:05:45.629Z,14.50
2022-10-04T21:08:25.460Z,14.50
2022-10-04T21:11:21.038Z,14.30
2022-10-04T21:14:00.616Z,14.30
2022-10-04T21:16:36.149Z,14.20
2022-10-04T21:19:50.458Z,14.40
2022-10-04T21:22:40.365Z,14.50
2022-10-04T21:25:41.754Z,14.40
2022-10-04T21:28:39.999Z,14.30
2022-10-04T21:31:09.510Z,14.30
2022-10-04T21:33:37.682Z,14.50
2022-10-04T21:36:06.064Z,14.50
2022-10-04T21:38:34.235Z,14.50
2022-10-04T21:41:02.342Z,14.20
2022-10-04T21:43:30.492Z,14.10
2022-10-04T21:45:58.828Z,14.20
2022-10-04T21:48:28.492Z,14.30
2022-10-04T21:50:56.744Z,14.20
2022-10-04T21:53:24.884Z,14.30
2022-10-04T21:55:53.042Z,14.20
2022-10-04T21:58:21.488Z,14.30
2022-10-04T22:00:49.830Z,14.20
2022-10-04T22:03:18.045Z,14.00
2022-10-04T22:05:47.491Z,14.00
2022-10-04T22:08:15.664Z,14.10
2022-10-04T22:10:45.134Z,14.10
2022-10-04T22:13:13.270Z,14.10
2022-10-04T22:15:41.658Z,13.80
2022-10-04T22:18:09.822Z,14.10
2022-10-04T22:20:37.930Z,14.10
2022-10-04T22:23:11.576Z,14.20
2022-10-04T22:25:39.958Z,14.10
2022-10-04T22:28:14.936Z,14.00
2022-10-04T22:30:43.267Z,13.90
2022-10-04T22:33:25.270Z,13.80
2022-10-04T22:35:53.463Z,13.90
2022-10-04T22:38:22.957Z,13.90
2022-10-04T22:40:51.056Z,13.80
2022-10-04T22:43:19.237Z,13.90
2022-10-04T22:45:47.457Z,13.70
2022-10-04T22:48:16.058Z,13.70
2022-10-04T22:50:44.198Z,13.70
2022-10-04T22:53:13.889Z,14.10
2022-10-04T22:55:43.461Z,13.90
2022-10-04T22:58:12.845Z,13.80
2022-10-04T23:00:40.962Z,14.00
2022-10-04T23:03:16.826Z,14.00
2022-10-04T23:05:45.400Z,14.00
2022-10-04T23:08:14.813Z,13.90
2022-10-04T23:10:44.281Z,13.70
2022-10-04T23:13:12.416Z,13.70
2022-10-04T23:15:40.634Z,14.10
2022-10-04T23:18:14.638Z,13.90
2022-10-04T23:20:42.801Z,13.60
2022-10-04T23:23:12.185Z,13.60
2022-10-04T23:25:40.398Z,13.60
2022-10-04T23:28:13.930Z,13.70
2022-10-04T23:30:42.153Z,13.80
2022-10-04T23:33:14.780Z,13.90
2022-10-04T23:35:42.927Z,13.80
2022-10-04T23:38:13.704Z,13.70
2022-10-04T23:40:41.822Z,13.70
2022-10-04T23:43:12.743Z,13.70
2022-10-04T23:45:42.176Z,13.60
2022-10-04T23:48:10.378Z,13.50
2022-10-04T23:50:38.919Z,13.60
2022-10-04T23:53:12.713Z,13.70
2022-10-04T23:55:41.825Z,13.70
2022-10-04T23:58:14.358Z,13.70
